sensor_id;sensor_type;location;lat;lon;timestamp;pressure;altitude;pressure_sealevel;temperature;humidity
39363;BME280;25088;43.238;23.110;2024-01-25T00:01:49;96824.28;;;11.41;66.70
39363;BME280;25088;43.238;23.110;2024-01-25T00:04:14;96835.34;;;11.29;67.17
39363;BME280;25088;43.238;23.110;2024-01-25T00:06:40;96844.66;;;11.33;64.99
39363;BME280;25088;43.238;23.110;2024-01-25T00:09:05;96844.63;;;11.50;64.31
39363;BME280;25088;43.238;23.110;2024-01-25T00:11:31;96828.38;;;11.22;65.37
39363;BME280;25088;43.238;23.110;2024-01-25T00:13:57;96833.09;;;11.48;61.89
39363;BME280;25088;43.238;23.110;2024-01-25T00:16:23;96838.84;;;11.69;61.90
39363;BME280;25088;43.238;23.110;2024-01-25T00:18:48;96822.25;;;11.75;59.43
39363;BME280;25088;43.238;23.110;2024-01-25T00:21:14;96813.78;;;11.99;58.50
39363;BME280;25088;43.238;23.110;2024-01-25T00:23:39;96811.19;;;12.14;57.33
39363;BME280;25088;43.238;23.110;2024-01-25T00:26:05;96839.53;;;12.30;56.49
39363;BME280;25088;43.238;23.110;2024-01-25T00:28:30;96831.06;;;12.31;56.69
39363;BME280;25088;43.238;23.110;2024-01-25T00:30:56;96830.78;;;12.33;55.41
39363;BME280;25088;43.238;23.110;2024-01-25T00:33:21;96832.69;;;12.32;54.72
39363;BME280;25088;43.238;23.110;2024-01-25T00:35:47;96835.84;;;12.46;54.30
39363;BME280;25088;43.238;23.110;2024-01-25T00:38:13;96844.53;;;12.38;54.21
39363;BME280;25088;43.238;23.110;2024-01-25T00:40:39;96825.31;;;12.33;54.04
39363;BME280;25088;43.238;23.110;2024-01-25T00:43:05;96847.06;;;12.45;52.69
39363;BME280;25088;43.238;23.110;2024-01-25T00:45:31;96845.75;;;12.52;51.78
39363;BME280;25088;43.238;23.110;2024-01-25T00:47:57;96828.72;;;12.45;51.81
39363;BME280;25088;43.238;23.110;2024-01-25T00:50:23;96828.34;;;12.63;50.43
39363;BME280;25088;43.238;23.110;2024-01-25T00:52:51;96825.41;;;12.75;50.43
39363;BME280;25088;43.238;23.110;2024-01-25T00:55:17;96822.78;;;12.90;50.03
39363;BME280;25088;43.238;23.110;2024-01-25T00:57:43;96825.34;;;12.65;50.43
39363;BME280;25088;43.238;23.110;2024-01-25T01:00:09;96826.66;;;12.62;50.13
39363;BME280;25088;43.238;23.110;2024-01-25T01:02:37;96821.94;;;12.53;50.53
39363;BME280;25088;43.238;23.110;2024-01-25T01:05:04;96817.47;;;12.41;50.53
39363;BME280;25088;43.238;23.110;2024-01-25T01:07:30;96810.47;;;12.56;50.23
39363;BME280;25088;43.238;23.110;2024-01-25T01:09:56;96808.81;;;12.55;49.35
39363;BME280;25088;43.238;23.110;2024-01-25T01:12:21;96789.22;;;12.68;48.84
39363;BME280;25088;43.238;23.110;2024-01-25T01:14:47;96781.13;;;12.51;48.64
39363;BME280;25088;43.238;23.110;2024-01-25T01:17:13;96780.88;;;12.58;49.98
39363;BME280;25088;43.238;23.110;2024-01-25T01:19:39;96784.25;;;12.65;49.28
39363;BME280;25088;43.238;23.110;2024-01-25T01:22:04;96788.81;;;12.54;48.82
39363;BME280;25088;43.238;23.110;2024-01-25T01:24:29;96792.94;;;12.57;48.68
39363;BME280;25088;43.238;23.110;2024-01-25T01:26:55;96765.78;;;12.50;48.38
39363;BME280;25088;43.238;23.110;2024-01-25T01:29:20;96784.81;;;12.67;48.71
39363;BME280;25088;43.238;23.110;2024-01-25T01:31:46;96789.91;;;12.53;49.06
39363;BME280;25088;43.238;23.110;2024-01-25T01:34:11;96783.34;;;12.54;48.77
39363;BME280;25088;43.238;23.110;2024-01-25T01:36:43;96769.53;;;12.76;48.37
39363;BME280;25088;43.238;23.110;2024-01-25T01:39:08;96768.91;;;12.64;48.91
39363;BME280;25088;43.238;23.110;2024-01-25T01:41:34;96755.78;;;12.71;48.26
39363;BME280;25088;43.238;23.110;2024-01-25T01:43:59;96737.22;;;12.78;48.36
39363;BME280;25088;43.238;23.110;2024-01-25T01:46:36;96727.84;;;12.69;49.03
39363;BME280;25088;43.238;23.110;2024-01-25T01:49:06;96722.59;;;12.62;48.12
39363;BME280;25088;43.238;23.110;2024-01-25T01:51:32;96707.59;;;12.70;48.42
39363;BME280;25088;43.238;23.110;2024-01-25T01:54:00;96728.44;;;12.76;49.06
39363;BME280;25088;43.238;23.110;2024-01-25T01:56:28;96728.09;;;12.67;48.47
39363;BME280;25088;43.238;23.110;2024-01-25T01:59:00;96724.50;;;12.62;49.23
39363;BME280;25088;43.238;23.110;2024-01-25T02:01:26;96724.81;;;12.65;48.72
39363;BME280;25088;43.238;23.110;2024-01-25T02:03:52;96713.44;;;12.47;48.93
39363;BME280;25088;43.238;23.110;2024-01-25T02:06:22;96697.16;;;12.67;47.23
39363;BME280;25088;43.238;23.110;2024-01-25T02:08:48;96680.75;;;12.72;47.01
39363;BME280;25088;43.238;23.110;2024-01-25T02:11:16;96692.31;;;12.84;47.17
39363;BME280;25088;43.238;23.110;2024-01-25T02:13:42;96692.84;;;12.81;47.20
39363;BME280;25088;43.238;23.110;2024-01-25T02:16:08;96671.56;;;12.93;47.59
39363;BME280;25088;43.238;23.110;2024-01-25T02:18:33;96681.03;;;12.76;48.56
39363;BME280;25088;43.238;23.110;2024-01-25T02:20:59;96683.00;;;12.80;48.73
39363;BME280;25088;43.238;23.110;2024-01-25T02:23:25;96678.28;;;12.71;49.87
39363;BME280;25088;43.238;23.110;2024-01-25T02:25:50;96693.44;;;12.41;48.88
39363;BME280;25088;43.238;23.110;2024-01-25T02:28:16;96697.22;;;12.03;50.29
39363;BME280;25088;43.238;23.110;2024-01-25T02:30:42;96686.16;;;12.20;50.03
39363;BME280;25088;43.238;23.110;2024-01-25T02:33:07;96687.22;;;12.13;50.27
39363;BME280;25088;43.238;23.110;2024-01-25T02:35:33;96690.00;;;12.19;50.54
39363;BME280;25088;43.238;23.110;2024-01-25T02:37:59;96673.19;;;12.05;49.94
39363;BME280;25088;43.238;23.110;2024-01-25T02:40:24;96686.50;;;11.96;50.40
39363;BME280;25088;43.238;23.110;2024-01-25T02:42:50;96665.53;;;12.07;48.41
39363;BME280;25088;43.238;23.110;2024-01-25T02:45:15;96674.50;;;12.02;50.28
39363;BME280;25088;43.238;23.110;2024-01-25T02:47:41;96674.50;;;12.02;49.93
39363;BME280;25088;43.238;23.110;2024-01-25T02:50:07;96679.91;;;12.24;50.06
39363;BME280;25088;43.238;23.110;2024-01-25T02:52:32;96671.44;;;12.31;49.31
39363;BME280;25088;43.238;23.110;2024-01-25T02:54:58;96655.09;;;11.99;50.59
39363;BME280;25088;43.238;23.110;2024-01-25T02:57:23;96674.91;;;12.16;49.63
39363;BME280;25088;43.238;23.110;2024-01-25T02:59:49;96677.59;;;12.11;49.98
39363;BME280;25088;43.238;23.110;2024-01-25T03:02:14;96680.72;;;11.93;51.72
39363;BME280;25088;43.238;23.110;2024-01-25T03:04:42;96668.13;;;11.92;50.61
39363;BME280;25088;43.238;23.110;2024-01-25T03:07:07;96684.13;;;11.78;51.63
39363;BME280;25088;43.238;23.110;2024-01-25T03:09:33;96672.13;;;11.79;51.51
39363;BME280;25088;43.238;23.110;2024-01-25T03:11:58;96677.91;;;11.82;51.92
39363;BME280;25088;43.238;23.110;2024-01-25T03:14:24;96677.91;;;11.82;50.54
39363;BME280;25088;43.238;23.110;2024-01-25T03:16:49;96691.44;;;11.94;51.32
39363;BME280;25088;43.238;23.110;2024-01-25T03:19:15;96682.91;;;11.90;48.61
39363;BME280;25088;43.238;23.110;2024-01-25T03:21:40;96656.94;;;11.66;51.34
39363;BME280;25088;43.238;23.110;2024-01-25T03:24:06;96689.47;;;11.89;51.16
39363;BME280;25088;43.238;23.110;2024-01-25T03:26:31;96662.00;;;11.79;50.91
39363;BME280;25088;43.238;23.110;2024-01-25T03:28:56;96681.22;;;11.84;50.77
39363;BME280;25088;43.238;23.110;2024-01-25T03:31:22;96689.25;;;11.69;51.27
39363;BME280;25088;43.238;23.110;2024-01-25T03:33:47;96687.69;;;11.51;51.10
39363;BME280;25088;43.238;23.110;2024-01-25T03:36:13;96686.97;;;11.61;51.49
39363;BME280;25088;43.238;23.110;2024-01-25T03:38:39;96685.38;;;11.65;50.25
39363;BME280;25088;43.238;23.110;2024-01-25T03:41:05;96673.22;;;11.51;50.53
39363;BME280;25088;43.238;23.110;2024-01-25T03:43:30;96680.84;;;11.49;50.03
39363;BME280;25088;43.238;23.110;2024-01-25T03:45:55;96699.41;;;11.74;50.35
39363;BME280;25088;43.238;23.110;2024-01-25T03:48:21;96700.66;;;11.34;51.96
39363;BME280;25088;43.238;23.110;2024-01-25T03:50:47;96696.13;;;11.23;51.81
39363;BME280;25088;43.238;23.110;2024-01-25T03:53:13;96687.00;;;11.12;52.41
39363;BME280;25088;43.238;23.110;2024-01-25T03:55:38;96665.00;;;11.02;52.23
39363;BME280;25088;43.238;23.110;2024-01-25T03:58:04;96712.47;;;11.18;53.00
39363;BME280;25088;43.238;23.110;2024-01-25T04:00:29;96727.41;;;11.10;54.04
39363;BME280;25088;43.238;23.110;2024-01-25T04:02:55;96719.44;;;10.86;54.73
39363;BME280;25088;43.238;23.110;2024-01-25T04:05:20;96727.19;;;10.73;55.23
39363;BME280;25088;43.238;23.110;2024-01-25T04:07:46;96730.78;;;10.56;55.38
39363;BME280;25088;43.238;23.110;2024-01-25T04:10:11;96730.06;;;10.44;55.95
39363;BME280;25088;43.238;23.110;2024-01-25T04:12:37;96721.59;;;10.46;56.05
39363;BME280;25088;43.238;23.110;2024-01-25T04:15:02;96718.06;;;10.45;56.19
39363;BME280;25088;43.238;23.110;2024-01-25T04:17:28;96726.84;;;10.30;53.69
39363;BME280;25088;43.238;23.110;2024-01-25T04:19:54;96724.09;;;10.30;47.72
39363;BME280;25088;43.238;23.110;2024-01-25T04:22:19;96740.28;;;10.54;50.15
39363;BME280;25088;43.238;23.110;2024-01-25T04:24:44;96749.63;;;10.58;49.16
39363;BME280;25088;43.238;23.110;2024-01-25T04:27:14;96751.13;;;10.66;48.08
39363;BME280;25088;43.238;23.110;2024-01-25T04:29:40;96761.78;;;10.67;48.26
39363;BME280;25088;43.238;23.110;2024-01-25T04:32:07;96722.03;;;10.38;50.92
39363;BME280;25088;43.238;23.110;2024-01-25T04:34:32;96764.78;;;10.66;51.12
39363;BME280;25088;43.238;23.110;2024-01-25T04:36:58;96770.56;;;10.69;51.52
39363;BME280;25088;43.238;23.110;2024-01-25T04:39:23;96768.56;;;10.48;51.61
39363;BME280;25088;43.238;23.110;2024-01-25T04:41:49;96757.50;;;10.38;49.81
39363;BME280;25088;43.238;23.110;2024-01-25T04:44:14;96757.59;;;10.26;52.37
39363;BME280;25088;43.238;23.110;2024-01-25T04:46:41;96759.81;;;10.46;51.40
39363;BME280;25088;43.238;23.110;2024-01-25T04:49:07;96774.03;;;10.48;50.94
39363;BME280;25088;43.238;23.110;2024-01-25T04:51:32;96777.09;;;10.51;49.46
39363;BME280;25088;43.238;23.110;2024-01-25T04:53:58;96744.75;;;10.43;47.23
39363;BME280;25088;43.238;23.110;2024-01-25T04:56:23;96754.84;;;10.59;47.89
39363;BME280;25088;43.238;23.110;2024-01-25T04:58:49;96774.59;;;10.67;48.28
39363;BME280;25088;43.238;23.110;2024-01-25T05:01:14;96772.44;;;10.69;47.13
39363;BME280;25088;43.238;23.110;2024-01-25T05:03:39;96775.00;;;10.75;48.04
39363;BME280;25088;43.238;23.110;2024-01-25T05:06:05;96778.00;;;10.57;48.26
39363;BME280;25088;43.238;23.110;2024-01-25T05:08:31;96784.91;;;10.14;50.54
39363;BME280;25088;43.238;23.110;2024-01-25T05:10:56;96793.00;;;9.92;51.21
39363;BME280;25088;43.238;23.110;2024-01-25T05:13:22;96800.41;;;9.80;51.62
39363;BME280;25088;43.238;23.110;2024-01-25T05:15:48;96803.28;;;9.33;53.06
39363;BME280;25088;43.238;23.110;2024-01-25T05:18:13;96814.22;;;9.21;54.42
39363;BME280;25088;43.238;23.110;2024-01-25T05:20:39;96811.84;;;9.13;54.14
39363;BME280;25088;43.238;23.110;2024-01-25T05:23:04;96814.50;;;8.73;54.94
39363;BME280;25088;43.238;23.110;2024-01-25T05:25:30;96805.75;;;8.47;56.77
39363;BME280;25088;43.238;23.110;2024-01-25T05:27:56;96829.59;;;8.34;56.20
39363;BME280;25088;43.238;23.110;2024-01-25T05:30:23;96836.34;;;8.31;57.50
39363;BME280;25088;43.238;23.110;2024-01-25T05:32:49;96834.06;;;8.16;58.23
39363;BME280;25088;43.238;23.110;2024-01-25T05:35:15;96832.31;;;7.92;59.58
39363;BME280;25088;43.238;23.110;2024-01-25T05:37:41;96834.53;;;7.83;60.61
39363;BME280;25088;43.238;23.110;2024-01-25T05:40:07;96844.81;;;7.81;61.68
39363;BME280;25088;43.238;23.110;2024-01-25T05:42:34;96856.50;;;7.33;63.21
39363;BME280;25088;43.238;23.110;2024-01-25T05:45:00;96838.00;;;7.05;62.39
39363;BME280;25088;43.238;23.110;2024-01-25T05:47:25;96850.25;;;7.14;62.28
39363;BME280;25088;43.238;23.110;2024-01-25T05:49:51;96859.16;;;7.21;63.56
39363;BME280;25088;43.238;23.110;2024-01-25T05:52:17;96847.00;;;7.24;63.63
39363;BME280;25088;43.238;23.110;2024-01-25T05:54:42;96851.31;;;7.13;63.77
39363;BME280;25088;43.238;23.110;2024-01-25T05:57:09;96844.78;;;6.96;65.84
39363;BME280;25088;43.238;23.110;2024-01-25T05:59:35;96806.66;;;7.09;54.11
39363;BME280;25088;43.238;23.110;2024-01-25T06:02:00;96848.88;;;7.23;61.36
39363;BME280;25088;43.238;23.110;2024-01-25T06:04:25;96852.22;;;7.07;62.85
39363;BME280;25088;43.238;23.110;2024-01-25T06:06:51;96833.19;;;6.89;63.80
39363;BME280;25088;43.238;23.110;2024-01-25T06:09:16;96839.72;;;6.81;64.14
39363;BME280;25088;43.238;23.110;2024-01-25T06:11:42;96835.22;;;6.93;64.23
39363;BME280;25088;43.238;23.110;2024-01-25T06:14:08;96836.22;;;6.99;63.68
39363;BME280;25088;43.238;23.110;2024-01-25T06:16:34;96846.25;;;6.98;63.20
39363;BME280;25088;43.238;23.110;2024-01-25T06:18:59;96844.81;;;7.14;61.00
39363;BME280;25088;43.238;23.110;2024-01-25T06:21:26;96847.38;;;7.28;60.99
39363;BME280;25088;43.238;23.110;2024-01-25T06:23:52;96859.81;;;7.54;57.86
39363;BME280;25088;43.238;23.110;2024-01-25T06:26:17;96846.66;;;7.69;58.75
39363;BME280;25088;43.238;23.110;2024-01-25T06:28:43;96844.44;;;7.77;56.65
39363;BME280;25088;43.238;23.110;2024-01-25T06:31:08;96852.88;;;7.88;57.29
39363;BME280;25088;43.238;23.110;2024-01-25T06:33:34;96870.19;;;8.05;55.19
39363;BME280;25088;43.238;23.110;2024-01-25T06:35:59;96862.91;;;8.17;53.47
39363;BME280;25088;43.238;23.110;2024-01-25T06:38:25;96866.94;;;8.26;55.47
39363;BME280;25088;43.238;23.110;2024-01-25T06:40:51;96856.13;;;8.38;54.42
39363;BME280;25088;43.238;23.110;2024-01-25T06:43:16;96864.28;;;8.50;53.58
39363;BME280;25088;43.238;23.110;2024-01-25T06:45:41;96869.84;;;8.55;52.63
39363;BME280;25088;43.238;23.110;2024-01-25T06:48:07;96874.88;;;8.82;50.40
39363;BME280;25088;43.238;23.110;2024-01-25T06:50:34;96871.78;;;8.90;51.23
39363;BME280;25088;43.238;23.110;2024-01-25T06:53:00;96857.34;;;9.13;48.97
39363;BME280;25088;43.238;23.110;2024-01-25T06:55:25;96865.25;;;9.26;49.81
39363;BME280;25088;43.238;23.110;2024-01-25T06:57:51;96869.41;;;9.40;48.89
39363;BME280;25088;43.238;23.110;2024-01-25T07:00:16;96871.97;;;9.47;48.50
39363;BME280;25088;43.238;23.110;2024-01-25T07:02:42;96878.09;;;9.54;47.89
39363;BME280;25088;43.238;23.110;2024-01-25T07:05:08;96880.31;;;9.69;47.40
39363;BME280;25088;43.238;23.110;2024-01-25T07:07:34;96899.81;;;9.89;47.31
39363;BME280;25088;43.238;23.110;2024-01-25T07:09:59;96884.97;;;9.97;45.16
39363;BME280;25088;43.238;23.110;2024-01-25T07:12:25;96877.91;;;10.13;45.22
39363;BME280;25088;43.238;23.110;2024-01-25T07:14:50;96874.81;;;10.21;47.09
39363;BME280;25088;43.238;23.110;2024-01-25T07:17:16;96882.47;;;10.52;44.40
39363;BME280;25088;43.238;23.110;2024-01-25T07:19:41;96881.81;;;11.12;45.53
39363;BME280;25088;43.238;23.110;2024-01-25T07:22:07;96875.75;;;11.88;46.06
39363;BME280;25088;43.238;23.110;2024-01-25T07:24:33;96850.69;;;12.50;43.09
39363;BME280;25088;43.238;23.110;2024-01-25T07:26:58;96861.34;;;12.79;41.04
39363;BME280;25088;43.238;23.110;2024-01-25T07:29:24;96868.38;;;12.42;40.44
39363;BME280;25088;43.238;23.110;2024-01-25T07:31:49;96881.25;;;12.15;41.27
39363;BME280;25088;43.238;23.110;2024-01-25T07:34:15;96880.38;;;11.87;41.41
39363;BME280;25088;43.238;23.110;2024-01-25T07:36:41;96865.22;;;11.58;41.36
39363;BME280;25088;43.238;23.110;2024-01-25T07:39:06;96870.25;;;11.66;41.28
39363;BME280;25088;43.238;23.110;2024-01-25T07:41:31;96860.34;;;11.60;40.94
39363;BME280;25088;43.238;23.110;2024-01-25T07:43:57;96865.16;;;11.53;41.36
39363;BME280;25088;43.238;23.110;2024-01-25T07:46:22;96848.63;;;11.64;39.89
39363;BME280;25088;43.238;23.110;2024-01-25T07:48:49;96848.06;;;12.33;40.04
39363;BME280;25088;43.238;23.110;2024-01-25T07:51:15;96843.13;;;13.00;38.95
39363;BME280;25088;43.238;23.110;2024-01-25T07:53:41;96835.31;;;13.66;36.66
39363;BME280;25088;43.238;23.110;2024-01-25T07:56:09;96847.31;;;13.50;37.05
39363;BME280;25088;43.238;23.110;2024-01-25T07:58:36;96846.69;;;13.42;37.14
39363;BME280;25088;43.238;23.110;2024-01-25T08:01:05;96833.69;;;13.23;37.23
39363;BME280;25088;43.238;23.110;2024-01-25T08:03:32;96850.03;;;12.43;38.40
39363;BME280;25088;43.238;23.110;2024-01-25T08:05:59;96873.50;;;12.61;38.25
39363;BME280;25088;43.238;23.110;2024-01-25T08:08:24;96868.50;;;12.53;37.73
39363;BME280;25088;43.238;23.110;2024-01-25T08:10:49;96856.06;;;12.40;39.13
39363;BME280;25088;43.238;23.110;2024-01-25T08:13:15;96866.59;;;12.53;39.07
39363;BME280;25088;43.238;23.110;2024-01-25T08:15:41;96849.16;;;11.83;39.56
39363;BME280;25088;43.238;23.110;2024-01-25T08:18:06;96872.72;;;11.68;39.49
39363;BME280;25088;43.238;23.110;2024-01-25T08:20:31;96850.38;;;11.49;39.79
39363;BME280;25088;43.238;23.110;2024-01-25T08:22:57;96858.00;;;11.69;39.95
39363;BME280;25088;43.238;23.110;2024-01-25T08:25:22;96855.88;;;11.76;39.39
39363;BME280;25088;43.238;23.110;2024-01-25T08:27:48;96838.50;;;12.09;38.47
39363;BME280;25088;43.238;23.110;2024-01-25T08:30:14;96840.41;;;12.35;38.17
39363;BME280;25088;43.238;23.110;2024-01-25T08:32:40;96837.66;;;12.35;38.61
39363;BME280;25088;43.238;23.110;2024-01-25T08:35:05;96834.81;;;12.52;38.55
39363;BME280;25088;43.238;23.110;2024-01-25T08:37:31;96838.59;;;12.78;38.11
39363;BME280;25088;43.238;23.110;2024-01-25T08:39:58;96844.84;;;13.11;37.27
39363;BME280;25088;43.238;23.110;2024-01-25T08:42:23;96860.47;;;13.48;37.39
39363;BME280;25088;43.238;23.110;2024-01-25T08:44:49;96855.44;;;13.92;35.15
39363;BME280;25088;43.238;23.110;2024-01-25T08:47:18;96852.59;;;14.60;35.36
39363;BME280;25088;43.238;23.110;2024-01-25T08:49:43;96854.81;;;14.78;35.61
39363;BME280;25088;43.238;23.110;2024-01-25T08:52:09;96849.84;;;14.50;34.40
39363;BME280;25088;43.238;23.110;2024-01-25T08:54:35;96850.41;;;14.62;34.94
39363;BME280;25088;43.238;23.110;2024-01-25T08:57:03;96851.25;;;14.88;34.70
39363;BME280;25088;43.238;23.110;2024-01-25T08:59:28;96858.66;;;15.03;34.30
39363;BME280;25088;43.238;23.110;2024-01-25T09:01:56;96855.00;;;14.36;36.05
39363;BME280;25088;43.238;23.110;2024-01-25T09:04:21;96859.75;;;14.81;35.48
39363;BME280;25088;43.238;23.110;2024-01-25T09:06:47;96855.31;;;14.39;34.94
39363;BME280;25088;43.238;23.110;2024-01-25T09:09:12;96850.97;;;15.05;35.11
39363;BME280;25088;43.238;23.110;2024-01-25T09:11:38;96852.28;;;15.38;34.55
39363;BME280;25088;43.238;23.110;2024-01-25T09:14:04;96846.47;;;15.55;34.85
39363;BME280;25088;43.238;23.110;2024-01-25T09:16:29;96825.13;;;14.95;34.51
39363;BME280;25088;43.238;23.110;2024-01-25T09:18:55;96845.47;;;14.48;35.33
39363;BME280;25088;43.238;23.110;2024-01-25T09:21:21;96847.28;;;14.12;35.77
39363;BME280;25088;43.238;23.110;2024-01-25T09:23:46;96841.25;;;14.26;35.59
39363;BME280;25088;43.238;23.110;2024-01-25T09:26:12;96833.25;;;14.04;35.37
39363;BME280;25088;43.238;23.110;2024-01-25T09:28:37;96817.38;;;14.26;35.63
39363;BME280;25088;43.238;23.110;2024-01-25T09:31:03;96831.97;;;14.47;35.93
39363;BME280;25088;43.238;23.110;2024-01-25T09:33:29;96834.41;;;14.18;35.88
39363;BME280;25088;43.238;23.110;2024-01-25T09:35:55;96823.19;;;13.57;37.63
39363;BME280;25088;43.238;23.110;2024-01-25T09:38:21;96829.19;;;13.49;37.21
39363;BME280;25088;43.238;23.110;2024-01-25T09:40:47;96823.09;;;13.36;37.19
39363;BME280;25088;43.238;23.110;2024-01-25T09:43:14;96826.44;;;14.27;36.93
39363;BME280;25088;43.238;23.110;2024-01-25T09:45:41;96809.06;;;15.48;34.92
39363;BME280;25088;43.238;23.110;2024-01-25T09:48:07;96790.84;;;16.22;33.92
39363;BME280;25088;43.238;23.110;2024-01-25T09:50:32;96796.91;;;15.70;33.54
39363;BME280;25088;43.238;23.110;2024-01-25T09:52:59;96786.47;;;15.62;34.25
39363;BME280;25088;43.238;23.110;2024-01-25T09:55:25;96787.69;;;15.20;34.64
39363;BME280;25088;43.238;23.110;2024-01-25T09:57:55;96800.34;;;14.29;36.46
39363;BME280;25088;43.238;23.110;2024-01-25T10:00:22;96801.97;;;14.10;36.83
39363;BME280;25088;43.238;23.110;2024-01-25T10:02:48;96777.16;;;13.69;36.97
39363;BME280;25088;43.238;23.110;2024-01-25T10:05:17;96787.00;;;13.60;36.91
39363;BME280;25088;43.238;23.110;2024-01-25T10:07:44;96788.94;;;13.64;37.81
39363;BME280;25088;43.238;23.110;2024-01-25T10:10:11;96796.31;;;13.11;38.59
39363;BME280;25088;43.238;23.110;2024-01-25T10:12:38;96799.28;;;12.62;38.71
39363;BME280;25088;43.238;23.110;2024-01-25T10:15:05;96788.78;;;12.49;39.25
39363;BME280;25088;43.238;23.110;2024-01-25T10:17:31;96780.00;;;12.15;39.00
39363;BME280;25088;43.238;23.110;2024-01-25T10:19:56;96796.19;;;12.22;39.45
39363;BME280;25088;43.238;23.110;2024-01-25T10:22:22;96810.47;;;12.56;38.72
39363;BME280;25088;43.238;23.110;2024-01-25T10:24:48;96783.22;;;12.39;39.72
39363;BME280;25088;43.238;23.110;2024-01-25T10:27:16;96790.47;;;12.23;39.86
39363;BME280;25088;43.238;23.110;2024-01-25T10:29:41;96794.75;;;11.87;40.00
39363;BME280;25088;43.238;23.110;2024-01-25T10:32:08;96798.53;;;12.08;39.45
39363;BME280;25088;43.238;23.110;2024-01-25T10:34:35;96809.28;;;12.14;40.36
39363;BME280;25088;43.238;23.110;2024-01-25T10:37:03;96786.38;;;12.26;40.47
39363;BME280;25088;43.238;23.110;2024-01-25T10:39:29;96781.28;;;12.34;39.98
39363;BME280;25088;43.238;23.110;2024-01-25T10:41:56;96762.56;;;12.26;39.97
39363;BME280;25088;43.238;23.110;2024-01-25T10:44:21;96775.59;;;12.46;39.34
39363;BME280;25088;43.238;23.110;2024-01-25T10:46:48;96774.78;;;12.46;39.79
39363;BME280;25088;43.238;23.110;2024-01-25T10:49:14;96778.97;;;12.53;39.97
39363;BME280;25088;43.238;23.110;2024-01-25T10:51:41;96762.19;;;12.45;40.02
39363;BME280;25088;43.238;23.110;2024-01-25T10:54:08;96766.91;;;12.54;39.73
39363;BME280;25088;43.238;23.110;2024-01-25T10:56:38;96769.50;;;12.71;39.81
39363;BME280;25088;43.238;23.110;2024-01-25T10:59:06;96761.47;;;12.59;39.19
39363;BME280;25088;43.238;23.110;2024-01-25T11:01:33;96758.00;;;12.69;39.33
39363;BME280;25088;43.238;23.110;2024-01-25T11:03:59;96763.78;;;12.40;39.98
39363;BME280;25088;43.238;23.110;2024-01-25T11:06:27;96760.31;;;12.18;39.95
39363;BME280;25088;43.238;23.110;2024-01-25T11:09:04;96760.97;;;12.30;40.06
39363;BME280;25088;43.238;23.110;2024-01-25T11:11:31;96750.22;;;12.19;39.90
39363;BME280;25088;43.238;23.110;2024-01-25T11:13:58;96730.69;;;12.10;40.21
39363;BME280;25088;43.238;23.110;2024-01-25T11:16:32;96747.88;;;12.37;40.32
39363;BME280;25088;43.238;23.110;2024-01-25T11:19:05;96733.03;;;12.28;40.90
39363;BME280;25088;43.238;23.110;2024-01-25T11:21:44;96732.50;;;12.31;39.81
39363;BME280;25088;43.238;23.110;2024-01-25T11:26:43;96716.25;;;12.57;39.95
39363;BME280;25088;43.238;23.110;2024-01-25T11:29:12;96705.22;;;13.57;38.73
39363;BME280;25088;43.238;23.110;2024-01-25T11:31:39;96701.50;;;14.09;37.52
39363;BME280;25088;43.238;23.110;2024-01-25T11:34:05;96672.94;;;14.05;36.13
39363;BME280;25088;43.238;23.110;2024-01-25T11:36:30;96698.44;;;14.41;35.98
39363;BME280;25088;43.238;23.110;2024-01-25T11:38:56;96712.47;;;14.70;36.96
39363;BME280;25088;43.238;23.110;2024-01-25T11:41:22;96678.31;;;14.91;34.48
39363;BME280;25088;43.238;23.110;2024-01-25T11:43:48;96689.72;;;15.34;34.37
39363;BME280;25088;43.238;23.110;2024-01-25T11:46:14;96703.63;;;15.63;33.85
39363;BME280;25088;43.238;23.110;2024-01-25T11:48:42;96700.94;;;15.48;32.79
39363;BME280;25088;43.238;23.110;2024-01-25T11:51:12;96702.56;;;15.49;33.00
39363;BME280;25088;43.238;23.110;2024-01-25T11:53:38;96681.72;;;15.38;33.68
39363;BME280;25088;43.238;23.110;2024-01-25T11:56:09;96666.75;;;14.99;33.53
39363;BME280;25088;43.238;23.110;2024-01-25T11:58:38;96687.16;;;15.53;33.51
39363;BME280;25088;43.238;23.110;2024-01-25T12:01:06;96664.56;;;15.07;33.55
39363;BME280;25088;43.238;23.110;2024-01-25T12:03:36;96659.63;;;14.93;34.11
39363;BME280;25088;43.238;23.110;2024-01-25T12:06:03;96651.22;;;14.54;34.79
39363;BME280;25088;43.238;23.110;2024-01-25T12:08:31;96653.72;;;13.74;35.00
39363;BME280;25088;43.238;23.110;2024-01-25T12:11:07;96639.44;;;14.13;34.25
39363;BME280;25088;43.238;23.110;2024-01-25T12:13:38;96630.34;;;13.56;34.71
39363;BME280;25088;43.238;23.110;2024-01-25T12:16:05;96642.16;;;13.82;35.71
39363;BME280;25088;43.238;23.110;2024-01-25T12:18:31;96647.66;;;13.82;34.66
39363;BME280;25088;43.238;23.110;2024-01-25T12:20:58;96634.50;;;14.05;34.12
39363;BME280;25088;43.238;23.110;2024-01-25T12:23:30;96668.53;;;14.60;33.13
39363;BME280;25088;43.238;23.110;2024-01-25T12:26:01;96659.88;;;15.62;32.32
39363;BME280;25088;43.238;23.110;2024-01-25T12:28:28;96653.47;;;16.98;30.70
39363;BME280;25088;43.238;23.110;2024-01-25T12:30:55;96641.34;;;18.64;28.93
39363;BME280;25088;43.238;23.110;2024-01-25T12:33:20;96620.06;;;19.47;28.08
39363;BME280;25088;43.238;23.110;2024-01-25T12:35:46;96633.22;;;18.86;28.20
39363;BME280;25088;43.238;23.110;2024-01-25T12:38:11;96636.50;;;17.71;29.07
39363;BME280;25088;43.238;23.110;2024-01-25T12:40:37;96649.19;;;17.53;29.36
39363;BME280;25088;43.238;23.110;2024-01-25T12:43:02;96641.34;;;18.50;28.17
39363;BME280;25088;43.238;23.110;2024-01-25T12:45:28;96642.84;;;19.30;27.50
39363;BME280;25088;43.238;23.110;2024-01-25T12:47:53;96657.63;;;18.51;28.24
39363;BME280;25088;43.238;23.110;2024-01-25T12:50:19;96656.28;;;19.09;27.38